M I D A S
Marine Information and Data Acquisition System
Tripno 596 of the Zeeleeuw from 2003-09-23 06:59:19 to 2003-09-23 12:19:17
Back to CruiseResearch ActivitiesStationsMapUnderway DataData graphs

EquipmentUnitsComment
TimeDGPSUTC
LatitudeDGPSDM.mWGS84
LongitudeDGPSDM.mWGS84
TemperatureSBE03/SBE38deg celciusITS90
ConductivitySBE21S/mITS90
SalinitySBE21 Practical Salinity Units
ChlorophylAChelsea fluorimeterg/lCalibrated in Aceton
Missing or incorrect values are displayed as -999
Sea surface data collected by the RV Zeeleeuw from 2003-09-23 06:59:19 to 2003-09-23 12:19:17
Time Latitude Longitude Temperature Conductivity Salinity ChlorophylA
2003-09-23 07:00:23 51°13.72 2°55.75 31.493743 0.576064 3.366302 0.061486
2003-09-23 07:01:23 51°13.8 2°55.66 29.988593 0.576064 3.366143 0.061486
2003-09-23 07:02:23 51°13.88 2°55.6 29.200236 0.575959 3.366076 0.061486
2003-09-23 07:03:23 51°13.96 2°55.54 28.916663 0.575959 3.366448 0.027777
2003-09-23 07:04:23 51°14.05 2°55.48 30.060798 0.575855 3.36638 0.061486
2003-09-23 07:05:23 51°14.15 2°55.4 30.750038 0.575855 3.366858 0.027777
2003-09-23 07:06:23 51°14.26 2°55.27 30.081174 0.575751 3.366791 0.027777
2003-09-23 07:07:23 51°14.36 2°55.08 31.927682 0.575855 3.367124 0.027777
2003-09-23 07:08:23 51°14.44 2°54.85 30.488317 0.575855 3.367921 0.027777
2003-09-23 07:09:23 51°14.44 2°54.57 30.683415 0.575855 3.368081 0.027777
2003-09-23 07:10:23 51°14.37 2°54.28 29.383772 0.575751 3.365888 0.061486
2003-09-23 07:11:23 51°14.27 2°53.97 30.170544 0.575751 3.367216 0.095195
2003-09-23 07:12:23 51°14.16 2°53.68 29.720262 0.575542 3.36788 0.061486
2003-09-23 07:13:23 51°14.05 2°53.35 29.964485 0.575437 3.363403 0.095195
2003-09-23 07:14:23 51°13.94 2°53.02 29.942136 0.575438 3.36643 0.095195
2003-09-23 07:15:23 51°13.83 2°52.68 30.173924 0.575438 3.366324 0.128905
2003-09-23 07:16:23 51°13.71 2°52.35 30.140684 0.575229 3.368212 0.128905
2003-09-23 07:17:23 51°13.6 2°52.02 30.267721 0.575124 3.3649 0.128905
2003-09-23 07:18:23 51°13.49 2°51.69 29.76013 0.57502 3.366535 0.095195
2003-09-23 07:19:23 51°13.37 2°51.36 29.136019 0.57502 3.364461 0.095195
2003-09-23 07:20:23 51°13.26 2°51.03 30.534265 0.57502 3.365471 0.095195
2003-09-23 07:21:23 51°13.15 2°50.7 28.867393 0.57502 3.364992 0.095195
2003-09-23 07:22:23 51°13.04 2°50.37 29.315332 0.57502 3.366375 0.128905
2003-09-23 07:23:23 51°12.92 2°50.04 29.267141 0.574811 3.363529 0.095195
2003-09-23 07:24:23 51°12.81 2°49.7 29.441486 0.574811 3.365017 0.095195
2003-09-23 07:25:23 51°12.7 2°49.38 29.233179 0.574707 3.364046 0.095195
2003-09-23 07:26:23 51°12.58 2°49.06 28.780123 0.574707 3.365322 0.128905
2003-09-23 07:27:23 51°12.46 2°48.74 29.578892 0.574603 3.36467 0.128905
2003-09-23 07:28:23 51°12.33 2°48.42 29.679913 0.574603 3.36483 0.128905
2003-09-23 07:29:23 51°12.2 2°48.11 30.587399 0.574498 3.364603 0.128905
2003-09-23 07:30:23 51°12.08 2°47.78 29.297562 0.574498 3.364549 0.095195
2003-09-23 07:31:23 51°11.96 2°47.46 29.975816 0.574394 3.364802 0.162614
2003-09-23 07:32:23 51°11.83 2°47.14 29.411941 0.574289 3.364575 0.095195
2003-09-23 07:33:23 51°11.75 2°46.8 29.971934 0.574289 3.364521 0.128905
2003-09-23 07:34:23 51°11.66 2°46.45 29.229686 0.574185 3.364348 0.196324
2003-09-23 07:35:23 51°11.58 2°46.1 29.124383 0.574185 3.364721 0.095195
2003-09-23 07:36:23 51°11.49 2°45.76 29.197169 0.574081 3.364387 0.162614
2003-09-23 07:37:23 51°11.4 2°45.41 30.563341 0.574081 3.365026 0.196324
2003-09-23 07:38:23 51°11.32 2°45.06 30.263677 0.573976 3.364746 0.128905
2003-09-23 07:39:23 51°11.23 2°44.71 30.389561 0.573976 3.365119 0.230033
2003-09-23 07:40:23 51°11.15 2°44.37 30.429781 0.573976 3.365439 0.162614
2003-09-23 07:41:23 51°11.07 2°44.02 30.330563 0.573872 3.364946 0.162614
2003-09-23 07:42:23 51°10.98 2°43.68 29.703792 0.573872 3.365425 0.128905
2003-09-23 07:43:23 51°10.92 2°43.32 29.78685 0.573872 3.366012 0.196324
2003-09-23 07:44:23 51°10.88 2°42.96 30.494276 0.573768 3.365679 0.128905
2003-09-23 07:45:23 51°10.83 2°42.61 31.37615 0.573768 3.366426 0.230033
2003-09-23 07:46:23 51°10.78 2°42.26 30.449005 0.573663 3.366145 0.162614
2003-09-23 07:47:23 51°10.74 2°41.91 30.888897 0.573663 3.366466 0.196324
2003-09-23 07:48:23 51°10.69 2°41.56 31.20411 0.573663 3.367 0.128905
2003-09-23 07:49:23 51°10.64 2°41.21 30.913167 0.573559 3.366613 0.128905
2003-09-23 07:50:23 51°10.59 2°40.86 31.23564 0.573559 3.3672 0.162614
2003-09-23 07:51:23 51°10.54 2°40.52 31.41994 0.573559 3.367681 0.196324
2003-09-23 07:52:23 51°10.5 2°40.17 30.83723 0.573455 3.367401 0.128905
2003-09-23 07:53:23 51°10.45 2°39.82 31.875369 0.573455 3.367936 0.162614
2003-09-23 07:54:23 51°10.4 2°39.47 30.635702 0.573455 3.368363 0.162614
2003-09-23 07:55:23 51°10.35 2°39.12 31.98333 0.57335 3.36819 0.162614
2003-09-23 07:56:23 51°10.3 2°38.77 30.39581 0.57335 3.368404 0.128905
2003-09-23 07:57:23 51°10.25 2°38.42 31.769772 0.573246 3.36807 0.162614
2003-09-23 07:58:23 51°10.21 2°38.07 31.250359 0.573246 3.368391 0.162614
2003-09-23 07:59:23 51°10.16 2°37.72 30.117787 0.573246 3.36882 0.162614
2003-09-23 08:00:23 51°10.11 2°37.37 29.84005 0.573141 3.368486 0.162614
2003-09-23 08:01:23 51°10.07 2°37.03 31.09101 0.573141 3.369075 0.196324
2003-09-23 08:02:23 51°10.02 2°36.69 30.38928 0.573141 3.369503 0.162614
2003-09-23 08:03:23 51°10.01 2°36.34 30.743154 0.573037 3.369062 0.162614
2003-09-23 08:04:23 51°10.09 2°36.02 30.756606 0.573037 3.369437 0.162614
2003-09-23 08:05:23 51°10.24 2°35.78 30.139592 0.572933 3.369104 0.162614
2003-09-23 08:06:23 51°10.43 2°35.67 31.671452 0.572933 3.369747 0.196324
2003-09-23 08:07:23 51°10.64 2°35.71 31.245916 0.572933 3.37039 0.196324
2003-09-23 08:08:23 51°10.85 2°35.78 30.837614 0.572828 3.369949 0.162614
2003-09-23 08:09:23 51°11.04 2°35.89 30.8754 0.572828 3.370217 0.162614
2003-09-23 08:10:23 51°11.17 2°36.17 31.946603 0.572724 3.370098 0.162614
2003-09-23 08:11:23 51°11.28 2°36.47 30.99063 0.572724 3.370634 0.196324
2003-09-23 08:12:23 51°11.41 2°36.77 31.229217 0.57262 3.370247 0.196324
2003-09-23 08:13:23 51°11.53 2°37.06 30.53395 0.57262 3.370676 0.230033
2003-09-23 08:14:23 51°11.65 2°37.35 29.5292 0.57262 3.370944 0.196324
2003-09-23 08:15:23 51°11.77 2°37.65 31.093549 0.57262 3.371374 0.230033
2003-09-23 08:16:23 51°11.9 2°37.94 30.504933 0.572515 3.370986 0.196324
2003-09-23 08:17:23 51°12.02 2°38.24 30.924741 0.572515 3.371201 0.196324
2003-09-23 08:18:23 51°12.14 2°38.54 31.354003 0.572411 3.370813 0.263742
2003-09-23 08:19:23 51°12.26 2°38.84 31.004839 0.572411 3.371082 0.297452
2003-09-23 08:20:23 51°12.39 2°39.13 31.004769 0.572307 3.370855 0.263742
2003-09-23 08:21:23 51°12.51 2°39.43 30.701387 0.572307 3.371124 0.263742
2003-09-23 08:22:23 51°12.63 2°39.73 31.390669 0.572307 3.371339 0.263742
2003-09-23 08:23:23 51°12.76 2°40.03 30.954748 0.572202 3.370683 0.297452
2003-09-23 08:24:23 51°12.89 2°40.33 30.010505 0.572202 3.370951 0.297452
2003-09-23 08:25:23 51°13.01 2°40.63 31.656814 0.572098 3.37051 0.263742
2003-09-23 08:26:23 51°13.13 2°40.93 32.093887 0.572098 3.37094 0.297452
2003-09-23 08:27:23 51°13.25 2°41.22 32.136754 0.571993 3.370444 0.297452
2003-09-23 08:28:23 51°13.37 2°41.51 30.263994 0.571993 3.370767 0.297452
2003-09-23 08:29:23 51°13.5 2°41.8 32.00619 0.571993 3.371143 0.297452
2003-09-23 08:30:23 51°13.62 2°42.09 31.366897 0.571889 3.370648 0.297452
2003-09-23 08:31:23 51°13.75 2°42.38 30.808782 0.571889 3.37097 0.297452
2003-09-23 08:32:23 51°13.87 2°42.68 31.688193 0.571889 3.371185 0.263742
2003-09-23 08:33:23 51°14 2°42.97 30.85363 0.571785 3.371066 0.297452
2003-09-23 08:34:23 51°14.11 2°43.28 30.894861 0.571785 3.371282 0.297452
2003-09-23 08:35:23 51°14.22 2°43.59 31.28631 0.571785 3.371551 0.331161
2003-09-23 08:36:23 51°14.33 2°43.91 31.076852 0.571785 3.37182 0.263742
2003-09-23 08:37:23 51°14.44 2°44.23 31.341211 0.57168 3.371647 0.297452
2003-09-23 08:38:23 51°14.55 2°44.54 30.755558 0.57168 3.37197 0.331161
2003-09-23 08:39:23 51°14.66 2°44.86 32.25939 0.57168 3.372239 0.331161
2003-09-23 08:40:23 51°14.77 2°45.17 31.031021 0.571576 3.37169 0.297452
2003-09-23 08:41:23 51°14.88 2°45.5 30.355467 0.571576 3.372013 0.331161
2003-09-23 08:42:23 51°14.97 2°45.83 31.955821 0.571472 3.371571 0.297452
2003-09-23 08:43:23 51°15.06 2°46.16 31.120014 0.571472 3.371894 0.331161
2003-09-23 08:44:23 51°15.16 2°46.5 30.921673 0.571367 3.371829 0.331161
2003-09-23 08:45:23 51°15.26 2°46.83 30.953424 0.571367 3.372044 0.331161
2003-09-23 08:46:23 51°15.35 2°47.16 30.9977 0.571367 3.372206 0.331161
2003-09-23 08:47:23 51°15.45 2°47.5 31.85309 0.571263 3.371656 0.331161
2003-09-23 08:48:23 51°15.54 2°47.84 30.005989 0.571263 3.371926 0.331161
2003-09-23 08:49:23 51°15.63 2°48.17 30.180225 0.571263 3.37268 0.364871
2003-09-23 08:50:23 51°15.73 2°48.51 31.881221 0.571159 3.371861 0.331161
2003-09-23 08:51:23 51°15.82 2°48.85 31.63385 0.571159 3.371699 0.331161
2003-09-23 08:52:23 51°15.92 2°49.18 31.725457 0.571054 3.371526 0.331161
2003-09-23 08:53:23 51°16.01 2°49.52 30.795619 0.571054 3.372065 0.331161
2003-09-23 08:54:23 51°16.1 2°49.85 30.340223 0.571054 3.372227 0.331161
2003-09-23 08:55:23 51°16.19 2°50.19 30.063619 0.571054 3.37282 0.331161
2003-09-23 08:56:23 51°16.28 2°50.53 31.159015 0.57095 3.37254 0.364871
2003-09-23 08:57:23 51°16.38 2°50.86 30.042885 0.57095 3.37254 0.331161
2003-09-23 08:58:23 51°16.51 2°51.16 31.56796 0.57095 3.37281 0.331161
2003-09-23 08:59:23 51°16.64 2°51.45 31.746256 0.570845 3.372313 0.331161
2003-09-23 09:00:23 51°16.79 2°51.72 31.727493 0.570845 3.372529 0.364871
2003-09-23 09:01:23 51°16.93 2°52 31.162734 0.570845 3.373447 0.263742
2003-09-23 09:02:23 51°17.11 2°52.18 30.247571 0.570845 3.373123 0.331161
2003-09-23 09:03:23 51°17.32 2°52.24 30.603153 0.570845 3.373501 0.331161
2003-09-23 09:04:23 51°17.53 2°52.28 32.145057 0.570845 3.373609 0.331161
2003-09-23 09:05:23 51°17.73 2°52.32 31.017304 0.570741 3.372465 0.331161
2003-09-23 09:06:23 51°17.94 2°52.38 31.516403 0.570741 3.37322 0.263742
2003-09-23 09:07:23 51°18.13 2°52.52 32.538322 0.570741 3.373328 0.297452
2003-09-23 09:08:23 51°18.29 2°52.75 31.360416 0.570741 3.37349 0.331161
2003-09-23 09:09:23 51°18.39 2°53.07 31.249074 0.570637 3.373696 0.331161
2003-09-23 09:10:23 51°18.5 2°53.4 31.373898 0.570637 3.373804 0.331161
2003-09-23 09:11:23 51°18.6 2°53.72 31.868999 0.570637 3.373912 0.331161
2003-09-23 09:12:23 51°18.71 2°54.03 31.958331 0.570532 3.373578 0.331161
2003-09-23 09:13:23 51°18.83 2°54.35 30.31693 0.570532 3.373902 0.331161
2003-09-23 09:14:23 51°18.93 2°54.68 32.142381 0.570532 3.374551 0.331161
2003-09-23 09:15:23 51°19.03 2°55 32.398657 0.570428 3.374 0.364871
2003-09-23 09:16:23 51°19.13 2°55.32 31.93993 0.570428 3.374 0.263742
2003-09-23 09:17:23 51°19.24 2°55.65 30.118703 0.570428 3.374649 0.364871
2003-09-23 09:18:23 51°19.33 2°55.98 31.920732 0.570324 3.373828 0.297452
2003-09-23 09:19:23 51°19.43 2°56.32 31.708967 0.570324 3.37426 0.297452
2003-09-23 09:20:23 51°19.53 2°56.65 31.326406 0.570324 3.374909 0.364871
2003-09-23 09:21:23 51°19.63 2°56.99 30.41571 0.570324 3.374477 0.297452
2003-09-23 09:22:23 51°19.73 2°57.33 30.816288 0.570219 3.374196 0.297452
2003-09-23 09:23:23 51°19.83 2°57.66 30.65428 0.570219 3.374412 0.263742
2003-09-23 09:24:23 51°19.92 2°58.01 31.54936 0.570219 3.374629 0.297452
2003-09-23 09:25:23 51°20 2°58.36 30.178254 0.570219 3.374845 0.297452
2003-09-23 09:26:23 51°20.09 2°58.7 30.038442 0.570115 3.374457 0.331161
2003-09-23 09:27:23 51°20.18 2°59.05 31.868035 0.570115 3.374673 0.331161
2003-09-23 09:28:23 51°20.26 2°59.41 30.651866 0.570115 3.37516 0.331161
2003-09-23 09:29:23 51°20.35 2°59.76 29.543295 0.570115 3.37516 0.297452
2003-09-23 09:30:23 51°20.42 3°0.12 30.158679 0.570011 3.37488 0.297452
2003-09-23 09:31:23 51°20.51 3°0.47 31.564226 0.570011 3.375205 0.263742
2003-09-23 09:32:23 51°20.59 3°0.83 31.514535 0.569906 3.374491 0.297452
2003-09-23 09:33:23 51°20.67 3°1.19 29.015429 0.569906 3.374816 0.331161
2003-09-23 09:34:23 51°20.75 3°1.54 30.795794 0.569802 3.374319 0.297452
2003-09-23 09:35:23 51°20.83 3°1.9 30.996829 0.569802 3.374698 0.331161
2003-09-23 09:36:23 51°20.91 3°2.26 31.208729 0.569802 3.374969 0.263742
2003-09-23 09:37:23 51°21 3°2.61 30.696877 0.569802 3.375131 0.297452
2003-09-23 09:38:23 51°21.09 3°2.97 31.156478 0.569697 3.374688 0.331161
2003-09-23 09:39:23 51°21.18 3°3.33 30.832693 0.569697 3.374959 0.297452
2003-09-23 09:40:23 51°21.27 3°3.68 30.911702 0.569698 3.375447 0.331161
2003-09-23 09:41:23 51°21.35 3°4.04 30.156918 0.569698 3.375826 0.331161
2003-09-23 09:42:23 51°21.44 3°4.39 30.447286 0.569593 3.37522 0.297452
2003-09-23 09:43:23 51°21.53 3°4.74 32.159019 0.569593 3.375329 0.297452
2003-09-23 09:44:23 51°21.62 3°5.1 31.386303 0.569593 3.375492 0.263742
2003-09-23 09:45:23 51°21.71 3°5.45 31.083914 0.569489 3.375319 0.331161
2003-09-23 09:46:23 51°21.8 3°5.81 30.129976 0.569489 3.375374 0.297452
2003-09-23 09:47:23 51°21.89 3°6.17 30.508403 0.569489 3.375374 0.263742
2003-09-23 09:48:23 51°21.98 3°6.53 31.070451 0.569489 3.375753 0.297452
2003-09-23 09:49:23 51°22.07 3°6.89 32.239793 0.569384 3.375147 0.297452
2003-09-23 09:50:23 51°22.16 3°7.26 31.797658 0.569384 3.375364 0.297452
2003-09-23 09:51:23 51°22.25 3°7.62 30.367864 0.569384 3.375635 0.331161
2003-09-23 09:52:23 51°22.34 3°7.99 31.464743 0.56928 3.375029 0.331161
2003-09-23 09:53:23 51°22.42 3°8.36 31.928611 0.56928 3.375572 0.364871
2003-09-23 09:54:23 51°22.51 3°8.73 31.50862 0.56928 3.375463 0.331161
2003-09-23 09:55:23 51°22.57 3°9.11 30.12515 0.56928 3.37568 0.297452
2003-09-23 09:56:23 51°22.64 3°9.49 31.430814 0.56928 3.376006 0.331161
2003-09-23 09:57:23 51°22.7 3°9.89 32.213232 0.569176 3.375074 0.331161
2003-09-23 09:58:23 51°22.74 3°10.27 32.433153 0.569176 3.375562 0.331161
2003-09-23 09:59:23 51°22.78 3°10.66 30.589325 0.569176 3.376051 0.331161
2003-09-23 10:00:23 51°22.82 3°11.06 31.816645 0.569071 3.375227 0.331161
2003-09-23 10:01:23 51°22.85 3°11.45 32.415924 0.569071 3.375119 0.364871
2003-09-23 10:02:23 51°22.89 3°11.84 32.583604 0.569071 3.375227 0.297452
2003-09-23 10:03:23 51°22.95 3°12.23 32.067585 0.569071 3.375445 0.297452
2003-09-23 10:04:23 51°23.06 3°12.6 32.028183 0.568967 3.375109 0.297452
2003-09-23 10:05:23 51°23.16 3°12.96 31.497964 0.568967 3.375055 0.263742
2003-09-23 10:06:23 51°23.29 3°13.3 31.827946 0.568967 3.375327 0.331161
2003-09-23 10:07:23 51°23.42 3°13.64 31.154358 0.568967 3.375544 0.297452
2003-09-23 10:08:23 51°23.55 3°13.97 31.171768 0.568967 3.375924 0.364871
2003-09-23 10:09:23 51°23.69 3°14.28 31.550674 0.568863 3.375372 0.331161
2003-09-23 10:10:23 51°23.89 3°14.47 32.257061 0.568863 3.375317 0.331161
2003-09-23 10:11:23 51°24.1 3°14.55 31.260007 0.568863 3.375426 0.297452
2003-09-23 10:12:23 51°24.31 3°14.51 32.281415 0.568863 3.375535 0.364871
2003-09-23 10:13:23 51°24.49 3°14.4 31.497099 0.568863 3.375806 0.432289
2003-09-23 10:14:23 51°24.57 3°14.14 32.206582 0.568758 3.375145 0.39858
2003-09-23 10:15:23 51°24.59 3°13.84 32.872009 0.568758 3.375308 0.39858
2003-09-23 10:16:23 51°24.59 3°13.53 32.205142 0.568758 3.375743 0.39858
2003-09-23 10:17:23 51°24.57 3°13.23 31.257162 0.568758 3.375743 0.39858
2003-09-23 10:18:23 51°24.55 3°12.93 32.255793 0.568654 3.375245 0.39858
2003-09-23 10:19:23 51°24.52 3°12.64 32.377693 0.568654 3.375571 0.39858
2003-09-23 10:20:23 51°24.48 3°12.35 32.548289 0.568654 3.375734 0.39858
2003-09-23 10:21:23 51°24.44 3°12.06 32.488744 0.568654 3.375734 0.39858
2003-09-23 10:22:23 51°24.4 3°11.78 31.620414 0.568654 3.375788 0.39858
2003-09-23 10:23:23 51°24.36 3°11.49 31.967376 0.568654 3.376006 0.39858
2003-09-23 10:24:23 51°24.32 3°11.2 31.74667 0.568549 3.375507 0.39858
2003-09-23 10:25:23 51°24.28 3°10.91 32.596601 0.568549 3.375507 0.364871
2003-09-23 10:26:23 51°24.24 3°10.62 32.073697 0.568549 3.375833 0.39858
2003-09-23 10:27:23 51°24.21 3°10.32 31.432407 0.568549 3.375888 0.364871
2003-09-23 10:28:23 51°24.18 3°10.02 32.456905 0.568549 3.376105 0.39858
2003-09-23 10:29:23 51°24.15 3°9.73 31.733012 0.568445 3.37577 0.432289
2003-09-23 10:30:23 51°24.13 3°9.43 32.283435 0.568445 3.375933 0.39858
2003-09-23 10:31:23 51°24.1 3°9.12 31.220224 0.568445 3.375879 0.364871
2003-09-23 10:32:23 51°24.09 3°8.82 30.852479 0.568445 3.375988 0.39858
2003-09-23 10:33:23 51°24.07 3°8.51 31.210917 0.568445 3.376042 0.39858
2003-09-23 10:34:23 51°24.06 3°8.2 31.362184 0.568341 3.375543 0.39858
2003-09-23 10:35:23 51°24.06 3°7.89 33.107654 0.568341 3.375652 0.39858
2003-09-23 10:36:23 51°24.05 3°7.58 31.235709 0.568341 3.375924 0.39858
2003-09-23 10:37:23 51°24.05 3°7.27 31.741772 0.568341 3.375979 0.39858
2003-09-23 10:38:23 51°24.06 3°6.96 32.69126 0.568341 3.376142 0.39858
2003-09-23 10:39:23 51°24.07 3°6.64 32.722867 0.568341 3.376251 0.432289
2003-09-23 10:40:23 51°24.09 3°6.33 32.398213 0.568341 3.376468 0.39858
2003-09-23 10:41:23 51°24.1 3°6.01 31.275971 0.568236 3.37597 0.39858
2003-09-23 10:42:23 51°24.14 3°5.71 32.688569 0.568236 3.376024 0.39858
2003-09-23 10:43:23 51°24.2 3°5.41 32.314662 0.568236 3.376242 0.39858
2003-09-23 10:44:23 51°24.25 3°5.1 31.977004 0.568236 3.376351 0.39858
2003-09-23 10:45:23 51°24.31 3°4.8 31.484504 0.568236 3.376514 0.432289
2003-09-23 10:46:23 51°24.36 3°4.5 31.400092 0.568132 3.37607 0.39858
2003-09-23 10:47:23 51°24.42 3°4.2 32.704681 0.568132 3.376342 0.39858
2003-09-23 10:48:23 51°24.48 3°3.9 32.414694 0.568132 3.376397 0.39858
2003-09-23 10:49:23 51°24.53 3°3.6 32.496292 0.568132 3.376397 0.364871
2003-09-23 10:50:23 51°24.58 3°3.3 31.425862 0.568132 3.376505 0.39858
2003-09-23 10:51:23 51°24.51 3°3.01 32.509679 0.568132 3.376887 0.364871
2003-09-23 10:52:23 51°24.44 3°2.72 33.008311 0.568132 3.376996 0.432289
2003-09-23 10:53:23 51°24.3 3°2.48 31.526745 0.568132 3.377595 0.39858
2003-09-23 10:54:23 51°24.16 3°2.25 32.662503 0.568132 3.377649 0.39858
2003-09-23 10:55:23 51°24.01 3°2.02 31.970299 0.568028 3.377096 0.39858
2003-09-23 10:56:23 51°23.87 3°1.79 32.276483 0.568028 3.376878 0.364871
2003-09-23 10:57:23 51°23.73 3°1.55 32.520263 0.568028 3.377205 0.39858
2003-09-23 10:58:23 51°23.59 3°1.32 32.61679 0.568028 3.377151 0.39858
2003-09-23 10:59:23 51°23.45 3°1.08 32.665264 0.568028 3.377532 0.39858
2003-09-23 11:00:23 51°23.31 3°0.84 31.548807 0.567923 3.377033 0.364871
2003-09-23 11:01:23 51°23.17 3°0.61 32.337663 0.567923 3.377687 0.39858
2003-09-23 11:02:23 51°23.03 3°0.37 33.247331 0.567923 3.377905 0.39858
2003-09-23 11:03:23 51°22.9 3°0.13 32.813632 0.567819 3.377079 0.364871
2003-09-23 11:04:23 51°22.75 2°59.91 32.238079 0.567819 3.377352 0.364871
2003-09-23 11:05:23 51°22.61 2°59.69 32.356312 0.567819 3.377515 0.39858
2003-09-23 11:06:31 51°22.43 2°59.45 31.397979 0.567715 3.377453 0.39858
2003-09-23 11:07:29 51°22.27 2°59.25 31.37161 0.567715 3.377398 0.364871
2003-09-23 11:08:29 51°22.11 2°59.04 31.613989 0.567715 3.377671 0.39858
2003-09-23 11:09:29 51°21.96 2°58.84 30.776482 0.567715 3.37778 0.364871
2003-09-23 11:10:27 51°21.81 2°58.63 31.803723 0.56761 3.376844 0.331161
2003-09-23 11:11:27 51°21.66 2°58.42 31.024198 0.56761 3.376626 0.39858
2003-09-23 11:12:31 51°21.49 2°58.19 31.503085 0.56761 3.376844 0.364871
2003-09-23 11:13:29 51°21.34 2°57.99 32.455538 0.56761 3.377499 0.364871
2003-09-23 11:14:27 51°21.19 2°57.79 31.891996 0.56761 3.377772 0.39858
2003-09-23 11:15:29 51°21.03 2°57.58 32.09217 0.56761 3.377826 0.364871
2003-09-23 11:16:27 51°20.88 2°57.37 32.082248 0.567506 3.377436 0.39858
2003-09-23 11:17:27 51°20.74 2°57.14 31.631744 0.567506 3.377709 0.39858
2003-09-23 11:18:31 51°20.58 2°56.9 31.637477 0.567506 3.3776 0.364871
2003-09-23 11:19:29 51°20.44 2°56.68 31.705654 0.567506 3.377709 0.364871
2003-09-23 11:20:27 51°20.3 2°56.45 30.239235 0.567402 3.377373 0.39858
2003-09-23 11:21:31 51°20.15 2°56.21 32.371467 0.567402 3.377264 0.364871
2003-09-23 11:22:27 51°20.02 2°55.99 31.823708 0.567402 3.377537 0.364871
2003-09-23 11:23:33 51°19.87 2°55.73 32.302029 0.567402 3.377646 0.39858
2003-09-23 11:24:33 51°19.73 2°55.49 31.519655 0.567402 3.377755 0.364871
2003-09-23 11:25:33 51°19.6 2°55.25 33.143426 0.567297 3.376928 0.39858
2003-09-23 11:26:35 51°19.46 2°55.01 31.856981 0.567297 3.377365 0.39858
2003-09-23 11:27:37 51°19.31 2°54.76 32.00808 0.567297 3.377256 0.364871
2003-09-23 11:28:37 51°19.17 2°54.52 32.058758 0.567193 3.376866 0.364871
2003-09-23 11:29:37 51°19.03 2°54.29 31.959948 0.567193 3.377357 0.364871
2003-09-23 11:30:37 51°18.9 2°54.05 31.484331 0.567193 3.377193 0.364871
2003-09-23 11:31:37 51°18.76 2°53.81 31.770151 0.567193 3.376975 0.39858
2003-09-23 11:32:37 51°18.62 2°53.58 32.629099 0.567193 3.377412 0.39858
2003-09-23 11:33:37 51°18.49 2°53.35 32.634656 0.567193 3.377521 0.39858
2003-09-23 11:34:37 51°18.35 2°53.11 31.73653 0.567088 3.37713 0.364871
2003-09-23 11:35:35 51°18.22 2°52.88 32.213609 0.567193 3.377685 0.364871
2003-09-23 11:36:37 51°18.07 2°52.66 32.033715 0.567088 3.377349 0.39858
2003-09-23 11:37:37 51°17.87 2°52.58 32.528389 0.567088 3.377513 0.39858
2003-09-23 11:38:37 51°17.66 2°52.55 31.423576 0.567088 3.377294 0.364871
2003-09-23 11:39:37 51°17.45 2°52.5 33.145221 0.567088 3.377567 0.364871
2003-09-23 11:40:35 51°17.25 2°52.53 32.468316 0.566984 3.377232 0.39858
2003-09-23 11:41:37 51°17.04 2°52.7 33.245944 0.566984 3.377177 0.39858
2003-09-23 11:42:43 51°16.82 2°52.87 32.283127 0.566984 3.377559 0.364871
2003-09-23 11:43:43 51°16.62 2°53.03 32.638099 0.566984 3.377669 0.39858
2003-09-23 11:44:43 51°16.43 2°53.19 32.657357 0.566984 3.377669 0.39858
2003-09-23 11:45:43 51°16.23 2°53.36 33.040535 0.56688 3.377224 0.39858
2003-09-23 11:46:43 51°16.03 2°53.52 32.712038 0.56688 3.377169 0.39858
2003-09-23 11:47:43 51°15.83 2°53.67 33.880106 0.56688 3.377388 0.364871
2003-09-23 11:48:43 51°15.63 2°53.82 35.309299 0.566775 3.376888 0.39858
2003-09-23 11:49:43 51°15.43 2°53.97 31.923863 0.566775 3.376833 0.39858
2003-09-23 11:50:43 51°15.26 2°54.11 31.714245 0.566775 3.377325 0.39858
2003-09-23 11:51:43 51°15.12 2°54.24 32.176683 0.566775 3.377489 0.39858
2003-09-23 11:52:43 51°15.02 2°54.4 32.699811 0.566775 3.37738 0.39858
2003-09-23 11:53:43 51°14.94 2°54.54 32.044262 0.566775 3.377653 0.39858
2003-09-23 11:54:43 51°14.85 2°54.67 31.282182 0.566671 3.376989 0.39858
2003-09-23 11:55:43 51°14.78 2°54.76 32.400572 0.566671 3.377208 0.39858
2003-09-23 11:56:43 51°14.73 2°54.82 31.602104 0.566671 3.377262 0.39858
2003-09-23 11:57:43 51°14.68 2°54.83 32.332119 0.566671 3.377317 0.364871
2003-09-23 11:58:43 51°14.64 2°54.85 32.214603 0.566671 3.377372 0.39858
2003-09-23 11:59:43 51°14.6 2°54.87 32.723208 0.566671 3.3777 0.39858
2003-09-23 12:00:43 51°14.5 2°54.93 33.340287 0.566567 3.376872 0.39858
2003-09-23 12:01:43 51°14.36 2°55.1 33.390471 0.566671 3.37759 0.39858
2003-09-23 12:02:43 51°14.24 2°55.31 31.937006 0.566567 3.376872 0.364871
2003-09-23 12:03:43 51°14.11 2°55.42 31.808031 0.566567 3.3772 0.39858
2003-09-23 12:04:43 51°14.02 2°55.49 32.210078 0.566567 3.377419 0.39858
2003-09-23 12:05:43 51°13.94 2°55.55 32.909113 0.566462 3.376918 0.39858
2003-09-23 12:06:43 51°13.86 2°55.61 32.081114 0.566462 3.377082 0.39858
2003-09-23 12:07:43 51°13.78 2°55.67 32.177163 0.566462 3.377247 0.39858
2003-09-23 12:08:43 51°13.72 2°55.77 33.137127 0.566462 3.377356 0.39858
2003-09-23 12:09:43 51°13.67 2°55.88 32.808155 0.566462 3.377411 0.364871
2003-09-23 12:10:43 51°13.63 2°55.99 33.013604 0.566462 3.377575 0.39858
2003-09-23 12:11:43 51°13.61 2°56.07 31.997493 0.566462 3.37763 0.39858
2003-09-23 12:12:43 51°13.6 2°56.1 32.249935 0.566462 3.377739 0.364871
2003-09-23 12:13:43 51°13.6 2°56.11 33.640637 0.566462 3.377848 0.39858
2003-09-23 12:14:47 51°13.6 2°56.11 32.3123 0.566358 3.377348 0.39858
2003-09-23 12:15:47 51°13.6 2°56.11 32.530642 0.566358 3.377458 0.39858
2003-09-23 12:16:47 51°13.6 2°56.11 32.577907 0.566358 3.377512 0.39858
2003-09-23 12:17:47 51°13.6 2°56.11 32.577088 0.566358 3.377567 0.364871
2003-09-23 12:18:47 51°13.6 2°56.11 31.862663 0.566358 3.377841 0.432289